createdAt,value
2018-09-24T00:01:05.746Z,14.37
2018-09-24T00:03:34.887Z,14.43
2018-09-24T00:06:04.520Z,14.39
2018-09-24T00:08:33.537Z,14.42
2018-09-24T00:11:02.390Z,14.45
2018-09-24T00:13:31.599Z,14.33
2018-09-24T00:16:00.416Z,14.20
2018-09-24T00:18:29.209Z,14.30
2018-09-24T00:20:58.102Z,14.22
2018-09-24T00:23:27.237Z,14.13
2018-09-24T00:25:56.157Z,14.16
2018-09-24T00:28:24.989Z,14.20
2018-09-24T00:30:54.125Z,14.25
2018-09-24T00:33:23.011Z,14.24
2018-09-24T00:35:51.905Z,14.30
2018-09-24T00:38:21.041Z,14.27
2018-09-24T00:40:49.903Z,14.16
2018-09-24T00:43:18.761Z,14.25
2018-09-24T00:45:47.914Z,14.29
2018-09-24T00:48:16.833Z,14.36
2018-09-24T00:50:45.672Z,14.31
2018-09-24T00:53:19.466Z,14.34
2018-09-24T00:55:48.375Z,14.39
2018-09-24T00:58:17.232Z,14.39
2018-09-24T01:00:46.093Z,14.26
2018-09-24T01:03:14.922Z,14.25
2018-09-24T01:05:44.045Z,14.16
2018-09-24T01:08:12.906Z,14.25
2018-09-24T01:10:41.854Z,14.15
2018-09-24T01:13:11.096Z,14.07
2018-09-24T01:15:39.941Z,14.15
2018-09-24T01:18:08.798Z,14.07
2018-09-24T01:20:37.644Z,14.10
2018-09-24T01:23:06.899Z,14.03
2018-09-24T01:25:35.732Z,14.00
2018-09-24T01:28:05.381Z,13.90
2018-09-24T01:30:35.597Z,13.95
2018-09-24T01:33:04.449Z,13.86
2018-09-24T01:35:33.265Z,13.86
2018-09-24T01:38:03.056Z,13.87
2018-09-24T01:40:31.905Z,13.87
2018-09-24T01:43:00.692Z,13.77
2018-09-24T01:45:29.836Z,13.72
2018-09-24T01:47:58.645Z,13.81
2018-09-24T01:50:27.475Z,13.87
2018-09-24T01:53:01.246Z,13.76
2018-09-24T01:55:30.178Z,13.72
2018-09-24T01:57:58.996Z,13.72
2018-09-24T02:00:27.846Z,13.64
2018-09-24T02:02:57.015Z,13.72
2018-09-24T02:05:25.889Z,13.67
2018-09-24T02:07:54.761Z,13.62
2018-09-24T02:10:25.385Z,13.76
2018-09-24T02:12:58.337Z,13.80
2018-09-24T02:15:31.025Z,13.69
2018-09-24T02:18:00.259Z,13.65
2018-09-24T02:20:29.219Z,13.67
2018-09-24T02:22:58.065Z,13.61
2018-09-24T02:25:26.895Z,13.69
2018-09-24T02:27:56.031Z,13.71
2018-09-24T02:30:25.209Z,13.67
2018-09-24T02:32:54.048Z,13.73
2018-09-24T02:35:22.989Z,13.67
2018-09-24T02:37:52.108Z,13.69
2018-09-24T02:40:23.116Z,13.66
2018-09-24T02:42:52.075Z,13.63
2018-09-24T02:45:21.508Z,13.55
2018-09-24T02:47:50.377Z,13.51
2018-09-24T02:50:19.332Z,13.36
2018-09-24T02:52:48.491Z,13.33
2018-09-24T02:55:18.326Z,13.34
2018-09-24T02:57:47.323Z,13.29
2018-09-24T03:00:21.190Z,13.29
2018-09-24T03:02:50.271Z,13.38
2018-09-24T03:05:19.202Z,13.34
2018-09-24T03:07:48.040Z,13.40
2018-09-24T03:10:16.880Z,13.41
2018-09-24T03:12:50.660Z,13.43
2018-09-24T03:15:19.829Z,13.32
2018-09-24T03:17:48.757Z,13.33
2018-09-24T03:20:18.267Z,13.36
2018-09-24T03:23:50.784Z,13.31
2018-09-24T03:26:20.245Z,13.31
2018-09-24T03:28:49.286Z,13.41
2018-09-24T03:31:18.149Z,13.46
2018-09-24T03:33:47.275Z,13.38
2018-09-24T03:36:17.250Z,13.39
2018-09-24T03:38:46.111Z,13.30
2018-09-24T03:41:15.251Z,13.12
2018-09-24T03:43:44.110Z,13.18
2018-09-24T03:46:12.966Z,13.30
2018-09-24T03:48:42.122Z,13.36
2018-09-24T03:51:10.985Z,13.31
2018-09-24T03:53:39.841Z,13.35
2018-09-24T03:56:08.983Z,13.38
2018-09-24T03:58:37.826Z,13.36
2018-09-24T04:01:06.742Z,13.34
2018-09-24T04:03:35.902Z,13.31
2018-09-24T04:06:10.561Z,13.22
2018-09-24T04:08:44.480Z,13.24
2018-09-24T04:11:18.369Z,13.25
2018-09-24T04:13:52.593Z,13.28
2018-09-24T04:16:27.044Z,13.18
2018-09-24T04:19:02.128Z,13.29
2018-09-24T04:21:36.075Z,13.32
2018-09-24T04:24:10.816Z,13.17
2018-09-24T04:26:44.722Z,13.05
2018-09-24T04:29:18.635Z,13.06
2018-09-24T04:31:52.534Z,12.91
2018-09-24T04:34:26.603Z,12.91
2018-09-24T04:37:00.776Z,13.02
2018-09-24T04:39:34.775Z,12.93
2018-09-24T04:42:11.477Z,12.98
2018-09-24T04:44:45.345Z,13.02
2018-09-24T04:47:19.600Z,12.88
2018-09-24T04:49:53.455Z,12.99
2018-09-24T04:52:27.646Z,12.97
2018-09-24T04:55:01.533Z,13.02
2018-09-24T04:57:35.961Z,12.90
2018-09-24T05:00:10.951Z,12.88
2018-09-24T05:02:44.885Z,12.96
2018-09-24T05:05:19.083Z,12.88
2018-09-24T05:07:52.955Z,12.97
2018-09-24T05:10:26.987Z,12.93
2018-09-24T05:13:01.221Z,12.95
2018-09-24T05:15:35.568Z,12.90
2018-09-24T05:18:10.193Z,12.85
2018-09-24T05:20:44.468Z,12.88
2018-09-24T05:23:18.368Z,12.34
2018-09-24T05:25:52.282Z,12.43
2018-09-24T05:28:26.486Z,12.27
2018-09-24T05:31:00.540Z,12.36
2018-09-24T05:33:34.407Z,12.35
2018-09-24T05:36:12.176Z,12.46
2018-09-24T05:38:46.122Z,12.22
2018-09-24T05:41:20.358Z,12.12
2018-09-24T05:43:54.285Z,11.93
2018-09-24T05:46:28.474Z,11.95
2018-09-24T05:49:02.532Z,11.95
2018-09-24T05:51:36.986Z,12.08
2018-09-24T05:54:11.660Z,12.21
2018-09-24T05:56:46.074Z,11.92
2018-09-24T05:59:20.248Z,11.94
2018-09-24T06:01:54.157Z,12.03
2018-09-24T06:04:28.668Z,12.17
2018-09-24T06:07:02.610Z,12.31
2018-09-24T06:09:36.825Z,12.17
2018-09-24T06:12:11.449Z,12.15
2018-09-24T06:14:45.305Z,12.27
2018-09-24T06:17:19.121Z,12.07
2018-09-24T06:19:53.571Z,12.01
2018-09-24T06:22:27.437Z,11.94
2018-09-24T06:25:01.467Z,12.18
2018-09-24T06:27:35.381Z,12.25
2018-09-24T06:30:10.537Z,11.99
2018-09-24T06:32:44.562Z,12.01
2018-09-24T06:35:19.079Z,12.29
2018-09-24T06:37:52.999Z,12.00
2018-09-24T06:40:27.003Z,12.06
2018-09-24T06:43:01.267Z,11.80
2018-09-24T06:45:35.175Z,11.79
2018-09-24T06:48:09.952Z,11.78
2018-09-24T06:50:43.863Z,11.74
2018-09-24T06:53:18.047Z,11.96
2018-09-24T06:55:51.954Z,11.93
2018-09-24T06:58:25.850Z,11.95
2018-09-24T07:00:59.765Z,11.79
2018-09-24T07:03:33.944Z,12.16
2018-09-24T07:06:08.047Z,11.95
2018-09-24T07:08:41.960Z,12.24
2018-09-24T07:11:16.184Z,12.25
2018-09-24T07:13:50.049Z,12.56
2018-09-24T07:16:24.318Z,12.67
2018-09-24T07:18:58.351Z,12.42
2018-09-24T07:21:32.288Z,12.48
2018-09-24T07:24:06.153Z,12.62
2018-09-24T07:26:40.279Z,12.75
2018-09-24T07:29:14.469Z,12.59
2018-09-24T07:31:48.853Z,12.85
2018-09-24T07:34:23.052Z,13.02
2018-09-24T07:36:57.427Z,13.22
2018-09-24T07:39:31.648Z,13.34
2018-09-24T07:42:05.619Z,13.05
2018-09-24T07:44:39.778Z,13.35
2018-09-24T07:47:13.901Z,13.37
2018-09-24T07:49:48.326Z,13.68
2018-09-24T07:52:22.254Z,13.95
2018-09-24T07:54:56.131Z,14.14
2018-09-24T07:57:29.926Z,14.41
2018-09-24T08:00:04.169Z,14.40
2018-09-24T08:02:38.036Z,14.68
2018-09-24T08:05:11.951Z,14.90
2018-09-24T08:07:46.052Z,14.97
2018-09-24T08:10:19.931Z,14.85
2018-09-24T08:12:53.881Z,15.17
2018-09-24T08:15:27.741Z,15.40
2018-09-24T08:18:03.716Z,15.54
2018-09-24T08:20:37.591Z,15.94
2018-09-24T08:23:12.022Z,16.34
2018-09-24T08:25:45.878Z,16.84
2018-09-24T08:28:20.331Z,16.97
2018-09-24T08:30:54.230Z,17.43
2018-09-24T08:33:28.121Z,17.77
2018-09-24T08:36:03.321Z,17.70
2018-09-24T08:38:37.136Z,17.91
2018-09-24T08:41:11.493Z,17.80
2018-09-24T08:43:45.388Z,17.24
2018-09-24T08:46:19.475Z,17.56
2018-09-24T08:48:53.394Z,18.04
2018-09-24T08:51:27.655Z,18.35
2018-09-24T08:54:03.407Z,18.58
2018-09-24T08:56:37.773Z,18.67
2018-09-24T08:59:11.645Z,18.31
2018-09-24T09:01:45.727Z,18.27
2018-09-24T09:04:19.865Z,18.32
2018-09-24T09:06:53.705Z,18.32
2018-09-24T09:09:27.673Z,18.04
2018-09-24T09:12:02.810Z,17.93
2018-09-24T09:14:36.822Z,17.70
2018-09-24T09:17:11.339Z,17.78
2018-09-24T09:19:45.233Z,17.80
2018-09-24T09:22:19.480Z,17.81
2018-09-24T09:24:53.347Z,17.90
2018-09-24T09:27:27.251Z,17.92
2018-09-24T09:30:02.244Z,18.31
2018-09-24T09:32:36.556Z,18.60
2018-09-24T09:35:10.466Z,18.24
2018-09-24T09:37:44.407Z,18.12
2018-09-24T09:40:18.634Z,18.21
2018-09-24T09:42:52.522Z,18.74
2018-09-24T09:45:26.466Z,19.08
2018-09-24T09:48:00.688Z,19.81
2018-09-24T09:50:34.551Z,20.46
2018-09-24T09:53:08.590Z,20.71
2018-09-24T09:55:42.698Z,20.66
2018-09-24T09:58:17.699Z,20.67
2018-09-24T10:00:51.670Z,21.32
2018-09-24T10:03:25.530Z,21.82
2018-09-24T10:05:59.417Z,22.10
2018-09-24T10:08:33.487Z,22.31
2018-09-24T10:11:07.403Z,22.47
2018-09-24T10:13:41.580Z,22.40
2018-09-24T10:16:15.476Z,22.12
2018-09-24T10:18:49.716Z,22.11
2018-09-24T10:21:23.585Z,22.02
2018-09-24T10:23:58.760Z,22.20
2018-09-24T10:26:32.872Z,22.10
2018-09-24T10:29:07.214Z,21.72
2018-09-24T10:31:41.125Z,21.17
2018-09-24T10:34:15.214Z,20.74
2018-09-24T10:36:49.217Z,20.47
2018-09-24T10:39:23.417Z,20.28
2018-09-24T10:41:57.810Z,20.09
2018-09-24T10:44:31.676Z,20.00
2018-09-24T10:47:05.896Z,19.72
2018-09-24T10:49:39.806Z,19.57
2018-09-24T10:52:13.960Z,19.54
2018-09-24T10:54:48.068Z,19.22
2018-09-24T10:57:22.246Z,19.09
2018-09-24T10:59:56.338Z,18.65
2018-09-24T11:02:30.263Z,19.34
2018-09-24T11:05:04.281Z,19.69
2018-09-24T11:07:38.293Z,19.79
2018-09-24T11:10:12.751Z,19.73
2018-09-24T11:12:46.843Z,19.61
2018-09-24T11:15:20.924Z,19.44
2018-09-24T11:17:55.120Z,18.88
2018-09-24T11:20:29.334Z,18.88
2018-09-24T11:23:03.269Z,18.96
2018-09-24T11:25:37.211Z,18.77
2018-09-24T11:28:12.432Z,18.84
2018-09-24T11:30:46.568Z,18.86
2018-09-24T11:33:20.809Z,18.97
2018-09-24T11:35:54.691Z,18.90
2018-09-24T11:38:28.862Z,18.91
2018-09-24T11:41:02.941Z,19.12
2018-09-24T11:43:36.851Z,19.83
2018-09-24T11:46:12.412Z,20.56
2018-09-24T11:48:47.692Z,21.32
2018-09-24T11:51:22.849Z,22.39
2018-09-24T11:53:56.974Z,23.36
2018-09-24T11:56:30.862Z,24.04
2018-09-24T11:59:05.065Z,24.83
2018-09-24T12:01:38.968Z,24.81
2018-09-24T12:04:12.957Z,22.77
2018-09-24T12:06:47.382Z,23.86
2018-09-24T12:09:21.352Z,24.38
2018-09-24T12:11:55.507Z,24.42
2018-09-24T12:14:29.404Z,24.19
2018-09-24T12:17:03.631Z,24.28
2018-09-24T12:19:37.502Z,24.37
2018-09-24T12:22:11.397Z,25.25
2018-09-24T12:24:45.222Z,25.49
2018-09-24T12:27:19.664Z,24.74
2018-09-24T12:29:53.570Z,25.32
2018-09-24T12:32:27.907Z,25.07
2018-09-24T12:35:02.106Z,25.23
2018-09-24T12:37:36.332Z,24.94
2018-09-24T12:40:10.994Z,24.02
2018-09-24T12:42:45.070Z,24.47
2018-09-24T12:45:18.966Z,23.73
2018-09-24T12:47:52.902Z,24.16
2018-09-24T12:50:28.113Z,24.77
2018-09-24T12:53:02.073Z,24.38
2018-09-24T12:55:36.348Z,23.55
2018-09-24T12:58:11.027Z,23.44
2018-09-24T13:00:48.841Z,22.96
2018-09-24T13:03:22.804Z,22.74
2018-09-24T13:05:57.095Z,23.25
2018-09-24T13:08:31.134Z,22.83
2018-09-24T13:11:05.011Z,22.71
2018-09-24T13:13:39.224Z,22.26
2018-09-24T13:16:13.148Z,21.87
2018-09-24T13:18:47.026Z,21.49
2018-09-24T13:21:21.126Z,20.98
2018-09-24T13:23:55.063Z,20.88
2018-09-24T13:26:29.285Z,21.02
2018-09-24T13:29:03.188Z,20.85
2018-09-24T13:31:37.669Z,20.79
2018-09-24T13:34:11.679Z,20.80
2018-09-24T13:36:45.679Z,21.13
2018-09-24T13:39:19.885Z,21.42
2018-09-24T13:41:53.703Z,21.28
2018-09-24T13:44:27.663Z,21.28
2018-09-24T13:47:01.644Z,21.20
2018-09-24T13:49:35.745Z,21.20
2018-09-24T13:52:10.786Z,21.09
2018-09-24T13:54:45.077Z,21.27
2018-09-24T13:57:18.953Z,21.27
2018-09-24T13:59:53.161Z,21.67
2018-09-24T14:02:27.036Z,21.79
2018-09-24T14:05:01.567Z,21.96
2018-09-24T14:07:35.951Z,22.87
2018-09-24T14:10:11.118Z,22.72
2018-09-24T14:12:45.398Z,22.96
2018-09-24T14:15:26.335Z,23.17
2018-09-24T14:18:00.601Z,23.48
2018-09-24T14:20:34.626Z,24.17
2018-09-24T14:23:08.700Z,24.46
2018-09-24T14:25:42.602Z,24.17
2018-09-24T14:28:17.023Z,23.54
2018-09-24T14:30:50.945Z,22.73
2018-09-24T14:33:24.826Z,22.36
2018-09-24T14:35:58.741Z,22.19
2018-09-24T14:38:32.781Z,22.28
2018-09-24T14:41:07.085Z,22.23
2018-09-24T14:43:41.020Z,22.24
2018-09-24T14:46:14.975Z,22.18
2018-09-24T14:48:49.104Z,21.82
2018-09-24T14:51:22.987Z,21.74
2018-09-24T14:53:56.934Z,22.43
2018-09-24T14:56:30.774Z,22.88
2018-09-24T14:59:05.159Z,23.40
2018-09-24T15:01:39.427Z,24.05
2018-09-24T15:04:13.981Z,24.56
2018-09-24T15:06:48.017Z,24.81
2018-09-24T15:09:21.855Z,24.99
2018-09-24T15:11:56.097Z,25.21
2018-09-24T15:14:30.322Z,25.14
2018-09-24T15:17:04.404Z,25.06
2018-09-24T15:19:38.770Z,24.75
2018-09-24T15:22:12.800Z,24.43
2018-09-24T15:24:46.904Z,24.52
2018-09-24T15:27:20.863Z,24.40
2018-09-24T15:29:54.716Z,24.45
2018-09-24T15:32:28.573Z,24.36
2018-09-24T15:35:02.628Z,24.44
2018-09-24T15:37:36.964Z,24.66
2018-09-24T15:40:11.708Z,24.54
2018-09-24T15:42:45.899Z,24.26
2018-09-24T15:45:19.738Z,24.15
2018-09-24T15:47:53.933Z,23.92
2018-09-24T15:50:27.807Z,24.03
2018-09-24T15:53:02.520Z,23.76
2018-09-24T15:55:36.427Z,23.95
2018-09-24T15:58:11.276Z,23.95
2018-09-24T16:00:45.469Z,24.09
2018-09-24T16:03:19.380Z,23.80
2018-09-24T16:05:53.851Z,23.46
2018-09-24T16:08:27.858Z,23.13
2018-09-24T16:11:02.081Z,22.95
2018-09-24T16:13:36.128Z,23.16
2018-09-24T16:16:12.098Z,23.03
2018-09-24T16:18:45.978Z,22.84
2018-09-24T16:21:20.401Z,22.76
2018-09-24T16:23:54.424Z,22.65
2018-09-24T16:26:28.622Z,22.21
2018-09-24T16:29:02.679Z,21.89
2018-09-24T16:31:36.946Z,21.57
2018-09-24T16:34:11.030Z,21.25
2018-09-24T16:36:44.931Z,21.05
2018-09-24T16:39:18.876Z,20.81
2018-09-24T16:41:52.749Z,20.56
2018-09-24T16:44:26.926Z,20.52
2018-09-24T16:47:00.806Z,20.27
2018-09-24T16:49:35.220Z,20.03
2018-09-24T16:52:10.908Z,19.88
2018-09-24T16:54:44.764Z,19.77
2018-09-24T16:57:19.034Z,19.68
2018-09-24T16:59:52.984Z,19.63
2018-09-24T17:02:28.381Z,19.62
2018-09-24T17:05:06.239Z,19.42
2018-09-24T17:07:44.282Z,19.29
2018-09-24T17:10:18.584Z,19.16
2018-09-24T17:12:52.453Z,19.00
2018-09-24T17:15:26.693Z,18.98
2018-09-24T17:18:00.588Z,18.96
2018-09-24T17:20:34.528Z,18.86
2018-09-24T17:23:08.352Z,18.71
2018-09-24T17:25:42.733Z,18.53
2018-09-24T17:28:16.710Z,18.40
2018-09-24T17:30:50.696Z,18.35
2018-09-24T17:33:25.077Z,18.19
2018-09-24T17:35:59.714Z,18.06
2018-09-24T17:38:33.542Z,18.14
2018-09-24T17:41:07.436Z,18.08
2018-09-24T17:43:41.566Z,18.08
2018-09-24T17:46:15.785Z,18.03
2018-09-24T17:48:49.883Z,17.80
2018-09-24T17:51:24.145Z,17.74
2018-09-24T17:53:58.041Z,17.69
2018-09-24T17:56:32.452Z,17.60
2018-09-24T17:59:06.577Z,17.67
2018-09-24T18:01:41.009Z,17.74
2018-09-24T18:04:15.751Z,17.71
2018-09-24T18:06:50.331Z,17.78
2018-09-24T18:09:24.616Z,17.74
2018-09-24T18:11:59.169Z,17.77
2018-09-24T18:14:33.589Z,17.83
2018-09-24T18:17:07.979Z,17.81
2018-09-24T18:19:42.221Z,17.78
2018-09-24T18:22:16.740Z,17.66
2018-09-24T18:24:50.813Z,17.67
2018-09-24T18:27:25.341Z,17.69
2018-09-24T18:29:59.823Z,17.74
2018-09-24T18:32:34.480Z,17.70
2018-09-24T18:35:08.875Z,17.73
2018-09-24T18:37:43.065Z,17.68
2018-09-24T18:40:17.549Z,17.68
2018-09-24T18:42:51.731Z,17.68
2018-09-24T18:45:26.116Z,17.74
2018-09-24T18:48:00.667Z,17.69
2018-09-24T18:50:35.105Z,17.62
2018-09-24T18:53:09.663Z,17.47
2018-09-24T18:55:43.954Z,17.44
2018-09-24T18:58:18.558Z,17.54
2018-09-24T19:00:52.862Z,17.17
2018-09-24T19:03:27.068Z,17.35
2018-09-24T19:06:01.382Z,17.34
2018-09-24T19:08:36.002Z,17.18
2018-09-24T19:11:10.334Z,17.22
2018-09-24T19:13:44.872Z,17.21
2018-09-24T19:16:19.073Z,17.18
2018-09-24T19:18:53.361Z,17.16
2018-09-24T19:21:28.042Z,16.85
2018-09-24T19:24:03.090Z,16.84
2018-09-24T19:26:37.544Z,16.67
2018-09-24T19:29:11.895Z,16.70
2018-09-24T19:31:46.559Z,16.76
2018-09-24T19:34:20.478Z,16.74
2018-09-24T19:36:55.038Z,16.75
2018-09-24T19:39:28.933Z,16.76
2018-09-24T19:42:03.621Z,16.81
2018-09-24T19:44:37.816Z,16.69
2018-09-24T19:47:11.907Z,16.64
2018-09-24T19:49:45.971Z,16.71
2018-09-24T19:52:20.179Z,16.71
2018-09-24T19:54:54.383Z,16.60
2018-09-24T19:57:28.301Z,16.44
2018-09-24T20:00:03.320Z,16.25
2018-09-24T20:02:37.305Z,16.23
2018-09-24T20:05:11.351Z,16.19
2018-09-24T20:07:45.317Z,16.30
2018-09-24T20:10:19.185Z,16.22
2018-09-24T20:12:53.342Z,16.22
2018-09-24T20:15:27.217Z,16.09
2018-09-24T20:18:01.792Z,16.15
2018-09-24T20:20:36.726Z,16.09
2018-09-24T20:23:11.155Z,15.99
2018-09-24T20:25:45.108Z,15.96
2018-09-24T20:28:19.977Z,16.04
2018-09-24T20:30:54.083Z,15.98
2018-09-24T20:33:29.079Z,15.88
2018-09-24T20:36:03.466Z,15.77
2018-09-24T20:38:37.383Z,15.81
2018-09-24T20:41:11.759Z,15.85
2018-09-24T20:43:45.760Z,15.86
2018-09-24T20:46:19.865Z,15.89
2018-09-24T20:48:53.849Z,15.70
2018-09-24T20:51:28.286Z,15.68
2018-09-24T20:54:04.407Z,15.62
2018-09-24T20:56:38.858Z,15.68
2018-09-24T20:59:18.742Z,15.53
2018-09-24T21:01:54.416Z,15.54
2018-09-24T21:04:28.587Z,15.56
2018-09-24T21:07:02.872Z,15.51
2018-09-24T21:09:36.858Z,15.54
2018-09-24T21:12:11.618Z,15.54
2018-09-24T21:14:45.938Z,15.49
2018-09-24T21:17:20.077Z,15.44
2018-09-24T21:19:53.978Z,15.39
2018-09-24T21:22:28.666Z,15.47
2018-09-24T21:25:02.726Z,15.52
2018-09-24T21:27:37.457Z,15.48
2018-09-24T21:30:11.417Z,15.46
2018-09-24T21:33:00.008Z,15.43
2018-09-24T21:35:33.917Z,15.41
2018-09-24T21:38:08.107Z,15.48
2018-09-24T21:40:42.185Z,15.42
2018-09-24T21:43:16.249Z,15.43
2018-09-24T21:45:50.622Z,15.37
2018-09-24T21:48:24.641Z,15.23
2018-09-24T21:50:58.885Z,15.31
2018-09-24T21:53:32.904Z,15.30
2018-09-24T21:56:07.409Z,15.28
2018-09-24T21:58:41.738Z,15.30
2018-09-24T22:01:15.618Z,15.10
2018-09-24T22:03:49.610Z,15.17
2018-09-24T22:06:24.128Z,15.14
2018-09-24T22:08:58.083Z,15.09
2018-09-24T22:11:32.401Z,15.08
2018-09-24T22:14:06.344Z,14.96
2018-09-24T22:16:40.266Z,14.81
2018-09-24T22:19:14.687Z,14.87
2018-09-24T22:21:48.648Z,14.91
2018-09-24T22:24:22.960Z,14.87
2018-09-24T22:26:56.912Z,14.84
2018-09-24T22:29:30.797Z,14.76
2018-09-24T22:32:04.673Z,14.79
2018-09-24T22:34:38.634Z,14.79
2018-09-24T22:37:12.799Z,14.68
2018-09-24T22:39:46.914Z,14.61
2018-09-24T22:42:20.769Z,14.65
2018-09-24T22:44:54.642Z,14.64
2018-09-24T22:47:28.781Z,14.55
2018-09-24T22:50:03.877Z,14.62
2018-09-24T22:52:38.046Z,14.63
2018-09-24T22:55:11.928Z,14.65
2018-09-24T22:57:45.861Z,14.53
2018-09-24T23:00:19.830Z,14.52
2018-09-24T23:02:54.035Z,14.40
2018-09-24T23:05:27.942Z,14.46
2018-09-24T23:08:02.604Z,14.47
2018-09-24T23:10:36.609Z,14.46
2018-09-24T23:13:10.551Z,14.50
2018-09-24T23:15:44.477Z,14.51
2018-09-24T23:18:18.346Z,14.49
2018-09-24T23:20:52.496Z,14.43
2018-09-24T23:23:26.405Z,14.47
2018-09-24T23:26:00.257Z,14.40
2018-09-24T23:28:34.389Z,14.42
2018-09-24T23:31:08.313Z,14.36
2018-09-24T23:33:42.245Z,14.26
2018-09-24T23:36:16.555Z,14.32
2018-09-24T23:38:50.581Z,14.30
2018-09-24T23:41:24.557Z,14.17
2018-09-24T23:43:58.638Z,14.17
2018-09-24T23:46:32.525Z,14.18
2018-09-24T23:49:06.617Z,14.14
2018-09-24T23:51:40.592Z,14.11
2018-09-24T23:54:14.841Z,14.12
2018-09-24T23:56:48.730Z,14.03
2018-09-24T23:59:22.593Z,14.04
